createdAt,value
2023-03-22T06:24:06.934Z,6.62
2023-03-22T06:26:42.312Z,6.49
2023-03-22T06:27:42.361Z,6.61
2023-03-22T06:28:42.534Z,6.66
2023-03-22T06:29:42.274Z,6.70
2023-03-22T06:30:42.487Z,6.67
2023-03-22T06:31:42.200Z,6.76
2023-03-22T06:32:42.221Z,6.73
2023-03-22T06:33:42.164Z,6.73
2023-03-22T06:34:42.157Z,6.73
2023-03-22T06:35:42.188Z,6.84
2023-03-22T06:36:42.140Z,6.85
2023-03-22T06:37:42.121Z,6.84
2023-03-22T06:38:42.183Z,6.88
2023-03-22T06:39:42.103Z,6.88
2023-03-22T06:40:42.408Z,6.92
2023-03-22T06:41:42.073Z,6.91
2023-03-22T06:42:42.075Z,6.98
2023-03-22T06:43:42.046Z,7.03
2023-03-22T06:44:42.064Z,7.21
2023-03-22T06:45:42.054Z,7.27
2023-03-22T06:46:42.011Z,7.34
2023-03-22T06:47:42.009Z,7.31
2023-03-22T06:48:41.984Z,7.35
2023-03-22T06:49:41.996Z,7.31
2023-03-22T06:50:44.063Z,7.21
2023-03-22T06:51:41.943Z,7.27
2023-03-22T06:52:41.934Z,7.27
2023-03-22T06:53:41.919Z,7.32
2023-03-22T06:54:41.936Z,7.40
2023-03-22T06:55:41.908Z,7.27
2023-03-22T06:56:41.892Z,7.20
2023-03-22T06:57:41.866Z,7.24
2023-03-22T06:58:41.864Z,7.35
2023-03-22T06:59:41.886Z,7.40
2023-03-22T07:00:42.260Z,7.49
2023-03-22T07:01:41.881Z,7.37
2023-03-22T07:02:41.809Z,7.32
2023-03-22T07:03:41.819Z,7.46
2023-03-22T07:04:41.854Z,7.53
2023-03-22T07:05:41.836Z,7.43
2023-03-22T07:06:41.763Z,7.37
2023-03-22T07:07:41.744Z,7.48
2023-03-22T07:08:41.769Z,7.50
2023-03-22T07:09:41.742Z,7.40
2023-03-22T07:10:42.050Z,7.52
2023-03-22T07:11:41.721Z,7.58
2023-03-22T07:12:41.691Z,7.61
2023-03-22T07:13:41.672Z,7.79
2023-03-22T07:14:41.665Z,7.63
2023-03-22T07:15:41.713Z,7.69
2023-03-22T07:16:41.664Z,7.75
2023-03-22T07:17:41.629Z,7.72
2023-03-22T07:18:41.638Z,7.87
2023-03-22T07:19:41.623Z,7.77
2023-03-22T07:20:42.810Z,7.85
2023-03-22T07:21:42.740Z,8.04
2023-03-22T07:22:42.700Z,8.00
2023-03-22T07:23:42.755Z,8.16
2023-03-22T07:24:54.058Z,8.19
2023-03-22T07:25:43.685Z,8.16
2023-03-22T07:26:42.708Z,8.08
2023-03-22T07:27:42.644Z,8.15
2023-03-22T07:28:42.641Z,8.15
2023-03-22T07:29:42.609Z,8.12
2023-03-22T07:30:42.772Z,8.12
2023-03-22T07:31:42.610Z,8.18
2023-03-22T07:32:42.619Z,8.22
2023-03-22T07:33:42.575Z,8.19
2023-03-22T07:34:42.566Z,8.12
2023-03-22T07:35:42.588Z,8.12
2023-03-22T07:36:42.754Z,8.16
2023-03-22T07:37:42.600Z,8.22
2023-03-22T07:38:42.536Z,8.22
2023-03-22T07:39:42.516Z,8.12
2023-03-22T07:40:42.509Z,8.37
2023-03-22T07:41:42.482Z,8.29
2023-03-22T07:42:42.479Z,8.23
2023-03-22T07:43:53.391Z,8.30
2023-03-22T07:44:42.458Z,8.12
2023-03-22T07:45:42.475Z,8.08
2023-03-22T07:46:42.574Z,8.12
2023-03-22T07:47:42.415Z,8.28
2023-03-22T07:48:42.438Z,8.30
2023-03-22T07:49:42.416Z,8.18
2023-03-22T07:50:42.383Z,8.28
2023-03-22T07:51:42.376Z,8.18
2023-03-22T07:52:42.384Z,8.22
2023-03-22T07:53:42.387Z,8.22
2023-03-22T07:54:42.352Z,8.18
2023-03-22T07:55:42.336Z,8.11
2023-03-22T07:56:42.316Z,8.11
2023-03-22T07:57:42.304Z,8.12
2023-03-22T07:58:42.351Z,8.18
2023-03-22T07:59:42.295Z,8.22
2023-03-22T08:00:42.267Z,8.11
2023-03-22T08:01:42.391Z,8.23
2023-03-22T08:02:42.259Z,8.22
2023-03-22T08:03:42.315Z,8.20
2023-03-22T08:04:42.250Z,8.22
2023-03-22T08:05:42.780Z,8.41
2023-03-22T08:06:42.243Z,8.40
2023-03-22T08:07:42.212Z,8.38
2023-03-22T08:08:42.201Z,8.44
2023-03-22T08:09:42.594Z,8.47
2023-03-22T08:10:42.240Z,8.47
2023-03-22T08:11:42.184Z,8.47
2023-03-22T08:12:42.148Z,8.43
2023-03-22T08:13:42.170Z,8.53
2023-03-22T08:14:42.461Z,8.53
2023-03-22T08:15:42.202Z,8.52
2023-03-22T08:16:42.312Z,8.52
2023-03-22T08:17:42.170Z,8.47
2023-03-22T08:18:44.330Z,8.55
2023-03-22T08:19:42.074Z,8.55
2023-03-22T08:20:42.444Z,8.61
2023-03-22T08:21:42.048Z,8.63
2023-03-22T08:22:42.045Z,8.65
2023-03-22T08:23:42.544Z,8.83
2023-03-22T08:24:43.062Z,8.83
2023-03-22T08:25:41.995Z,8.80
2023-03-22T08:26:41.971Z,8.70
2023-03-22T08:27:41.978Z,8.77
2023-03-22T08:28:41.988Z,8.74
2023-03-22T08:29:42.049Z,8.92
2023-03-22T08:30:42.118Z,8.91
2023-03-22T08:31:41.961Z,8.94
2023-03-22T08:32:41.914Z,9.04
2023-03-22T08:33:41.932Z,9.04
2023-03-22T08:35:17.291Z,8.94
2023-03-22T08:35:42.578Z,9.05
2023-03-22T08:36:42.085Z,9.15
2023-03-22T08:37:41.878Z,9.08
2023-03-22T08:38:41.856Z,8.95
2023-03-22T08:39:41.822Z,8.81
2023-03-22T08:40:41.891Z,8.84
2023-03-22T08:41:42.818Z,8.89
2023-03-22T08:42:41.814Z,8.87
2023-03-22T08:43:41.800Z,8.91
2023-03-22T08:44:41.794Z,8.92
2023-03-22T08:45:42.169Z,9.02
2023-03-22T08:46:42.085Z,9.04
2023-03-22T08:47:41.799Z,9.17
2023-03-22T08:48:41.796Z,9.32
2023-03-22T08:49:41.758Z,9.43
2023-03-22T08:50:41.708Z,9.51
2023-03-22T08:51:41.756Z,9.58
2023-03-22T08:52:41.696Z,9.46
2023-03-22T08:53:41.680Z,9.24
2023-03-22T08:54:41.690Z,9.26
2023-03-22T08:55:41.889Z,9.14
2023-03-22T08:56:41.658Z,9.14
2023-03-22T08:57:41.695Z,9.21
2023-03-22T08:58:41.610Z,9.29
2023-03-22T08:59:41.606Z,9.26
2023-03-22T09:00:48.565Z,9.31
2023-03-22T09:01:41.744Z,9.29
2023-03-22T09:02:41.617Z,9.26
2023-03-22T09:03:41.562Z,9.24
2023-03-22T09:04:41.639Z,9.33
2023-03-22T09:05:41.736Z,9.38
2023-03-22T09:06:41.550Z,9.47
2023-03-22T09:07:41.556Z,9.56
2023-03-22T09:08:41.586Z,9.60
2023-03-22T09:09:41.500Z,9.48
2023-03-22T09:10:41.472Z,9.53
2023-03-22T09:11:41.484Z,9.40
2023-03-22T09:12:41.485Z,9.50
2023-03-22T09:13:41.471Z,9.48
2023-03-22T09:14:41.412Z,9.48
2023-03-22T09:15:41.691Z,9.50
2023-03-22T09:16:41.412Z,9.50
2023-03-22T09:17:41.390Z,9.57
2023-03-22T09:18:41.424Z,9.47
2023-03-22T09:19:41.365Z,9.51
2023-03-22T09:20:41.661Z,9.40
2023-03-22T09:21:41.341Z,9.38
2023-03-22T09:22:41.333Z,9.32
2023-03-22T09:23:41.358Z,9.31
2023-03-22T09:24:41.302Z,9.31
2023-03-22T09:25:41.586Z,9.31
2023-03-22T09:26:41.292Z,9.36
2023-03-22T09:27:41.266Z,9.54
2023-03-22T09:28:41.330Z,9.46
2023-03-22T09:29:41.352Z,9.60
2023-03-22T09:30:41.716Z,9.69
2023-03-22T09:31:41.437Z,10.08
2023-03-22T09:32:41.633Z,10.04
2023-03-22T09:33:41.369Z,10.15
2023-03-22T09:34:41.963Z,10.04
2023-03-22T09:35:42.199Z,10.07
2023-03-22T09:36:41.169Z,9.90
2023-03-22T09:37:41.153Z,9.87
2023-03-22T09:38:41.170Z,9.89
2023-03-22T09:39:41.163Z,9.89
2023-03-22T09:40:41.145Z,9.76
2023-03-22T09:41:41.111Z,9.93
2023-03-22T09:42:41.096Z,9.87
2023-03-22T09:43:41.112Z,9.96
2023-03-22T09:44:41.071Z,10.09
2023-03-22T09:45:41.448Z,10.04
2023-03-22T09:47:44.275Z,10.11
2023-03-22T10:10:49.781Z,10.82
2023-03-22T10:11:49.845Z,10.97
2023-03-22T10:12:49.763Z,10.63
2023-03-22T10:13:49.783Z,10.38
2023-03-22T10:14:49.640Z,10.76
2023-03-22T10:15:49.748Z,10.71
2023-03-22T10:16:49.583Z,10.59
2023-03-22T10:17:49.528Z,10.60
2023-03-22T10:18:49.542Z,10.66
2023-03-22T10:19:49.571Z,10.97
2023-03-22T10:20:49.512Z,10.73
2023-03-22T10:21:49.506Z,10.59
2023-03-22T10:22:51.569Z,10.61
2023-03-22T10:23:49.473Z,10.53
2023-03-22T10:24:49.458Z,10.63
2023-03-22T10:25:49.525Z,10.96
2023-03-22T10:26:49.531Z,11.55
2023-03-22T10:27:50.609Z,11.79
2023-03-22T10:28:50.571Z,12.20
2023-03-22T10:29:50.539Z,12.70
2023-03-22T10:30:50.526Z,12.72
2023-03-22T10:31:52.068Z,13.11
2023-03-22T10:32:57.446Z,12.67
2023-03-22T10:33:50.546Z,12.32
2023-03-22T10:34:50.464Z,12.27
2023-03-22T10:35:50.544Z,12.09
2023-03-22T10:36:50.522Z,11.83
2023-03-22T10:37:50.456Z,11.95
2023-03-22T10:38:50.425Z,11.35
2023-03-22T10:39:50.461Z,11.37
2023-03-22T10:40:50.422Z,11.27
2023-03-22T10:41:50.446Z,11.07
2023-03-22T10:42:50.387Z,11.14
2023-03-22T10:43:50.418Z,11.02
2023-03-22T10:44:50.366Z,10.73
2023-03-22T10:45:50.357Z,10.76
2023-03-22T10:46:50.453Z,10.81
2023-03-22T10:47:50.450Z,10.56
2023-03-22T10:48:50.370Z,10.64
2023-03-22T10:49:50.302Z,10.52
2023-03-22T10:50:50.318Z,10.68
2023-03-22T10:51:50.285Z,10.56
2023-03-22T10:52:50.367Z,10.66
2023-03-22T10:53:50.277Z,10.48
2023-03-22T10:54:50.266Z,10.63
2023-03-22T10:55:50.278Z,10.59
2023-03-22T10:56:50.360Z,10.71
2023-03-22T10:57:50.405Z,10.85
2023-03-22T10:58:50.264Z,10.94
2023-03-22T10:59:50.213Z,11.10
2023-03-22T11:00:50.301Z,11.15
2023-03-22T11:01:50.319Z,11.03
2023-03-22T11:02:50.280Z,11.07
2023-03-22T11:03:50.161Z,10.82
2023-03-22T11:04:50.146Z,11.06
2023-03-22T11:05:50.112Z,11.47
2023-03-22T11:06:50.143Z,11.80
2023-03-22T11:07:50.100Z,11.64
2023-03-22T11:08:50.113Z,11.54
2023-03-22T11:09:50.103Z,11.76
2023-03-22T11:10:50.106Z,11.67
2023-03-22T11:11:50.118Z,11.65
2023-03-22T11:12:50.042Z,11.69
2023-03-22T11:13:50.093Z,11.86
2023-03-22T11:14:50.022Z,11.90
2023-03-22T11:15:50.002Z,12.13
2023-03-22T11:16:50.045Z,12.27
2023-03-22T11:17:50.984Z,12.09
2023-03-22T11:18:49.983Z,12.09
2023-03-22T11:19:50.001Z,11.69
2023-03-22T11:20:49.990Z,11.57
2023-03-22T11:21:49.964Z,11.55
2023-03-22T11:22:50.050Z,11.44
2023-03-22T11:23:49.929Z,11.42
2023-03-22T11:24:49.913Z,11.49
2023-03-22T11:25:49.913Z,11.75
2023-03-22T11:26:49.884Z,11.80
2023-03-22T11:27:49.863Z,11.75
2023-03-22T11:28:49.987Z,11.57
2023-03-22T11:29:49.933Z,11.57
2023-03-22T11:30:49.845Z,11.72
2023-03-22T11:31:49.886Z,11.91
2023-03-22T11:32:49.897Z,11.86
2023-03-22T11:33:49.786Z,11.90
2023-03-22T11:34:49.824Z,11.70
2023-03-22T11:35:49.861Z,11.51
2023-03-22T11:36:49.759Z,11.55
2023-03-22T11:37:49.729Z,11.57
2023-03-22T11:38:49.775Z,11.57
2023-03-22T11:39:49.736Z,11.73
2023-03-22T11:40:49.742Z,11.67
2023-03-22T11:41:49.706Z,11.75
2023-03-22T11:42:49.707Z,11.96
2023-03-22T11:43:50.222Z,11.86
2023-03-22T11:44:49.716Z,11.99
2023-03-22T11:45:49.796Z,11.85
2023-03-22T11:46:49.669Z,11.91
2023-03-22T11:47:49.761Z,11.99
2023-03-22T11:48:49.736Z,12.10
2023-03-22T11:49:49.627Z,12.23
2023-03-22T11:50:49.639Z,12.16
2023-03-22T11:51:49.612Z,12.16
2023-03-22T11:52:49.558Z,11.99
2023-03-22T11:53:49.979Z,12.23
2023-03-22T11:54:49.557Z,12.54
2023-03-22T11:55:49.594Z,12.27
2023-03-22T11:56:49.535Z,12.12
2023-03-22T11:57:49.550Z,12.17
2023-03-22T11:58:49.500Z,12.21
2023-03-22T11:59:49.490Z,12.29
2023-03-22T12:00:49.548Z,12.10
2023-03-22T12:01:49.600Z,12.27
2023-03-22T12:02:49.909Z,12.54
2023-03-22T12:03:49.562Z,12.54
2023-03-22T12:04:49.487Z,12.68
2023-03-22T12:05:49.488Z,12.92
2023-03-22T12:06:49.440Z,13.03
2023-03-22T12:07:49.504Z,12.89
2023-03-22T12:08:49.397Z,12.92
2023-03-22T12:09:49.407Z,12.89
2023-03-22T12:10:49.411Z,12.86
2023-03-22T12:11:49.395Z,12.77
2023-03-22T12:12:49.384Z,12.49
2023-03-22T12:13:49.342Z,12.59
2023-03-22T12:14:49.348Z,12.79
2023-03-22T12:15:49.408Z,12.74
2023-03-22T12:16:49.460Z,12.65
2023-03-22T12:17:49.407Z,12.75
2023-03-22T12:18:49.294Z,12.83
2023-03-22T12:19:49.295Z,12.90
2023-03-22T12:20:49.290Z,13.12
2023-03-22T12:21:49.245Z,13.07
2023-03-22T12:22:49.299Z,13.23
2023-03-22T12:23:49.241Z,13.29
2023-03-22T12:24:49.262Z,13.11
2023-03-22T12:25:49.356Z,13.03
2023-03-22T12:26:49.212Z,13.20
2023-03-22T12:27:49.245Z,13.32
2023-03-22T12:28:49.314Z,13.46
2023-03-22T12:29:49.231Z,13.75
2023-03-22T12:30:49.198Z,13.78
2023-03-22T12:31:50.907Z,13.92
2023-03-22T12:32:49.191Z,14.14
2023-03-22T12:33:49.197Z,13.87
2023-03-22T12:34:50.917Z,13.85
2023-03-22T12:35:49.168Z,13.48
2023-03-22T12:36:49.322Z,13.59
2023-03-22T12:37:49.142Z,13.48
2023-03-22T12:38:49.129Z,13.44
2023-03-22T12:39:49.090Z,13.22
2023-03-22T12:40:49.068Z,13.22
2023-03-22T12:41:49.045Z,13.30
2023-03-22T12:42:52.345Z,13.44
2023-03-22T12:43:50.062Z,13.42
2023-03-22T12:44:58.934Z,13.32
2023-03-22T12:45:49.078Z,13.33
2023-03-22T12:46:49.102Z,13.11
2023-03-22T12:47:49.064Z,13.17
2023-03-22T12:48:49.750Z,13.08
2023-03-22T12:49:48.978Z,13.11
2023-03-22T12:50:49.011Z,12.85
2023-03-22T12:51:48.931Z,12.65
2023-03-22T12:52:48.940Z,12.70
2023-03-22T12:53:48.967Z,12.57
2023-03-22T12:54:48.931Z,12.53
2023-03-22T12:55:48.913Z,12.60
2023-03-22T12:56:48.931Z,12.47
2023-03-22T12:57:49.484Z,12.32
2023-03-22T12:58:48.883Z,12.37
2023-03-22T12:59:48.911Z,12.24
2023-03-22T13:00:48.874Z,12.41
2023-03-22T13:01:48.829Z,12.47
2023-03-22T13:02:48.837Z,12.70
2023-03-22T13:03:48.868Z,12.86
2023-03-22T13:04:48.874Z,12.85
2023-03-22T13:05:48.784Z,13.01
2023-03-22T13:06:48.797Z,13.05
2023-03-22T13:07:48.783Z,13.10
2023-03-22T13:08:48.752Z,13.30
2023-03-22T13:09:48.803Z,13.38
2023-03-22T13:10:48.772Z,13.32
2023-03-22T13:11:48.727Z,13.12
2023-03-22T13:12:48.708Z,13.12
2023-03-22T13:13:48.737Z,13.11
2023-03-22T13:14:48.705Z,13.19
2023-03-22T13:15:48.732Z,13.08
2023-03-22T13:16:48.729Z,13.19
2023-03-22T13:17:48.717Z,13.03
2023-03-22T13:18:48.782Z,12.96
2023-03-22T13:19:48.644Z,12.93
2023-03-22T13:20:48.644Z,13.04
2023-03-22T13:21:48.680Z,13.14
2023-03-22T13:22:48.618Z,13.14
2023-03-22T13:23:48.624Z,12.92
2023-03-22T13:24:48.585Z,12.92
2023-03-22T13:25:48.577Z,12.86
2023-03-22T13:26:48.631Z,12.93
2023-03-22T13:27:48.544Z,13.11
2023-03-22T13:28:48.543Z,13.10
2023-03-22T13:29:48.718Z,13.32
2023-03-22T13:30:48.545Z,13.39
2023-03-22T13:31:48.557Z,13.17
2023-03-22T13:32:48.541Z,13.33
2023-03-22T13:33:48.490Z,13.04
2023-03-22T13:34:49.487Z,13.11
2023-03-22T13:35:48.515Z,13.10
2023-03-22T13:36:48.500Z,13.17
2023-03-22T13:37:48.481Z,13.20
2023-03-22T13:38:48.422Z,13.08
2023-03-22T13:39:48.445Z,13.03
2023-03-22T13:40:48.471Z,13.12
2023-03-22T13:41:48.387Z,13.10
2023-03-22T13:42:48.421Z,13.07
2023-03-22T13:43:48.388Z,12.96
2023-03-22T13:44:48.358Z,12.93
2023-03-22T13:45:48.355Z,13.01
2023-03-22T13:46:48.350Z,13.11
2023-03-22T13:47:48.396Z,13.07
2023-03-22T13:48:49.107Z,13.12
2023-03-22T13:49:48.324Z,13.08
2023-03-22T13:50:48.305Z,13.00
2023-03-22T13:51:49.297Z,12.90
2023-03-22T13:52:48.289Z,12.86
2023-03-22T13:53:48.335Z,12.83
2023-03-22T13:54:48.256Z,12.72
2023-03-22T13:55:48.286Z,12.82
2023-03-22T13:56:48.233Z,12.79
2023-03-22T13:57:48.242Z,12.78
2023-03-22T13:58:48.259Z,12.87
2023-03-22T13:59:50.621Z,13.07
2023-03-22T14:00:48.215Z,12.96
2023-03-22T14:01:48.263Z,13.00
2023-03-22T14:02:48.225Z,12.96
2023-03-22T14:03:48.251Z,13.04
2023-03-22T14:04:48.211Z,13.00
2023-03-22T14:05:48.137Z,13.07
2023-03-22T14:06:48.130Z,13.05
2023-03-22T14:07:48.267Z,12.85
2023-03-22T14:08:48.109Z,12.97
2023-03-22T14:09:48.116Z,13.04
2023-03-22T14:10:48.103Z,12.92
2023-03-22T14:11:48.078Z,12.97
2023-03-22T14:12:48.072Z,13.01
2023-03-22T14:13:48.061Z,13.11
2023-03-22T14:14:48.028Z,13.03
2023-03-22T14:15:48.230Z,13.12
2023-03-22T14:16:48.033Z,13.19
2023-03-22T14:17:50.393Z,13.28
2023-03-22T14:18:48.007Z,13.11
2023-03-22T14:19:47.984Z,12.97
2023-03-22T14:20:47.970Z,13.11
2023-03-22T14:21:47.981Z,13.11
